Aeroporto :
LOGIN :

Iscrizione | Disclaimer

   EN    FR    IT 

 










Sommario :    VFR   VFR Marginale   IFR   IFR Intensivo   IFR Molto Intensivo
Visibilità : 
Base nubi : 
>= 8 km
>= 3000ft
5 / 8 km
1000 / 3000 ft
1500m / 5 km
500 / 1000 ft
800 / 1500m
200 / 500 ft
< 800m
< 200 ft
Simboli :   Temporali  Nebbia  Neve Forte  Precipitazioni Forti  Vento > 20 kt
SIGMETs :   Varie  Temporali  Ghiacco  Turbolenza  Onda orograficha  Ceneri Vulcaniche






- Altitudine del aeroporto : 327 ft
- Codice IATA : BHX


EGBB - Birmingham

ULTIMO METAR :
  • 141120Z 20007KT 150V240 9999 VCSH SCT018CB BKN034 15/11 Q0999

METARs OBSOLETI :
  • 141050Z 23007KT 190V290 9999 VCSH BKN018 15/11 Q0999
  • 141020Z 24004KT 200V280 9999 VCSH BKN023 14/12 Q0999
  • 140950Z 24006KT 200V280 9999 VCSH BKN017 13/11 Q0999 RESHRA
  • 140920Z 21008KT 160V250 9999 SHRA BKN016 14/10 Q0999
  • 140850Z 20008KT 160V230 9999 8000NW VCSH BKN016 14/10 Q0999
  • 140820Z 20009KT 160V230 9999 8000NW VCSH BKN014CB 14/10 Q0999
  • 140750Z 20008KT 170V230 9999 VCSH BKN016 14/10 Q0999
  • 140720Z 21009KT 170V250 9999 BKN014 14/11 Q0999
  • 140650Z 21008KT 160V260 9999 BKN013 13/11 Q0999

TAF TAF EGBB
Valido dal 14 a 06 ore il 15 a 06 ore UTC


140455Z 1406/1506 19009KT 9999 SCT030
TEMPO 1406/1408 BKN007
TEMPO 1408/1412 21015G25KT 6000 SHRA BKN014
TEMPO 1412/1422 6000 SHRA
PROB40
TEMPO 1412/1422 21015G25KT 3000 +SHRA BKN014 BKN030CB
PROB30
TEMPO 1500/1504 BKN004
TEMPO 1504/1506 6000 SHRA BKN008
ATIS : +44 121 780 0910



MetMap, La meteo Aeronautica in un colpo d'occhio ! - Copyright ORBIFLY Dicembre 2007 - Disclaimer

ORBIFLY MET'MAP TEAM :

Programmazione e sviluppo : Alexandra Zaïnal
Concezione : Baudouin d'Aumeries
Supporto tecnico e logistico : Manuel Goepfert
Aiuto : Marc-Olivier Méhu
Aiuto per la traduzione : Arnaldo La Scala




FONTI E CREDITI :

   NOAA